Terminal Aerodrome Forecast
Issued by NWS

Home | Current Version | Previous Version | Text Only | Print | Product List | Glossary On
Versions: 1 2 3 4 5 6 7 8 9 10 11 12 13 14 15 16 17 18 19 20 21 22 23 24 25 26 27 28
000
FTUS44 KBMX 261120
TAFTCL
TAF
KTCL 261120Z 2612/2712 09008KT 6SM SHRA SCT025
     FM261400 11007KT 6SM SHRA OVC019
      TEMPO 2615/2619 4SM SHRA BR
     FM262000 10007KT 6SM SHRA OVC025 PROB30 2621/2703 4SM TSRA BR
      OVC015CB
     FM270600 11006KT P6SM BKN006=

USA.gov is the U.S. government's official web portal to all federal, state and local government web resources and services.